createdAt,value
2022-11-05T00:00:03.405Z,91.61
2022-11-05T00:02:48.409Z,92.18
2022-11-05T00:05:33.652Z,91.12
2022-11-05T00:08:22.537Z,91.55
2022-11-05T00:10:49.212Z,91.11
2022-11-05T00:13:34.841Z,91.67
2022-11-05T00:16:39.514Z,90.92
2022-11-05T00:19:10.041Z,91.31
2022-11-05T00:21:57.034Z,91.36
2022-11-05T00:24:42.294Z,91.27
2022-11-05T00:27:09.458Z,91.38
2022-11-05T00:29:36.004Z,91.61
2022-11-05T00:32:02.661Z,91.72
2022-11-05T00:34:29.257Z,91.30
2022-11-05T00:36:56.117Z,91.75
2022-11-05T00:39:22.981Z,91.25
2022-11-05T00:42:09.469Z,91.39
2022-11-05T00:44:54.504Z,90.84
2022-11-05T00:47:44.515Z,91.69
2022-11-05T00:50:11.843Z,91.41
2022-11-05T00:52:57.247Z,91.13
2022-11-05T00:55:25.623Z,91.71
2022-11-05T00:57:52.447Z,91.41
2022-11-05T01:00:19.068Z,91.21
2022-11-05T01:02:46.292Z,91.08
2022-11-05T01:05:13.780Z,90.65
2022-11-05T01:07:40.569Z,90.63
2022-11-05T01:10:07.517Z,90.57
2022-11-05T01:12:34.248Z,90.19
2022-11-05T01:15:01.114Z,90.33
2022-11-05T01:17:27.784Z,90.41
2022-11-05T01:19:54.260Z,90.71
2022-11-05T01:22:20.808Z,91.36
2022-11-05T01:24:47.265Z,90.93
2022-11-05T01:27:13.689Z,90.88
2022-11-05T01:29:40.297Z,91.11
2022-11-05T01:32:06.848Z,91.13
2022-11-05T01:34:33.343Z,91.13
2022-11-05T01:36:59.932Z,90.95
2022-11-05T01:39:26.429Z,91.48
2022-11-05T01:41:52.905Z,91.61
2022-11-05T01:44:53.621Z,91.00
2022-11-05T01:47:31.826Z,91.15
2022-11-05T01:50:03.398Z,91.13
2022-11-05T01:52:34.137Z,90.58
2022-11-05T01:55:02.062Z,91.68
2022-11-05T01:57:29.549Z,91.26
2022-11-05T01:59:59.831Z,91.38
2022-11-05T02:02:26.916Z,91.34
2022-11-05T02:05:05.689Z,91.47
2022-11-05T02:07:33.847Z,90.87
2022-11-05T02:10:06.907Z,91.36
2022-11-05T02:12:36.544Z,91.54
2022-11-05T02:15:04.816Z,91.50
2022-11-05T02:17:45.280Z,91.77
2022-11-05T02:20:46.796Z,91.45
2022-11-05T02:23:44.840Z,92.05
2022-11-05T02:26:49.270Z,91.31
2022-11-05T02:29:51.963Z,91.61
2022-11-05T02:32:34.199Z,91.90
2022-11-05T02:35:30.662Z,91.45
2022-11-05T02:38:09.996Z,91.08
2022-11-05T02:40:54.069Z,92.13
2022-11-05T02:43:36.749Z,91.47
2022-11-05T02:46:12.111Z,91.72
2022-11-05T02:48:59.800Z,91.39
2022-11-05T02:51:39.479Z,92.07
2022-11-05T02:54:41.507Z,91.67
2022-11-05T02:57:08.282Z,92.01
2022-11-05T02:59:34.710Z,91.86
2022-11-05T03:02:02.975Z,91.73
2022-11-05T03:04:31.114Z,92.16
2022-11-05T03:07:16.389Z,91.84
2022-11-05T03:09:55.043Z,91.94
2022-11-05T03:12:27.586Z,91.99
2022-11-05T03:15:06.170Z,91.98
2022-11-05T03:17:41.723Z,91.97
2022-11-05T03:20:11.062Z,91.09
2022-11-05T03:22:43.611Z,91.68
2022-11-05T03:25:15.820Z,91.52
2022-11-05T03:27:47.558Z,91.68
2022-11-05T03:30:16.094Z,91.90
2022-11-05T03:32:48.400Z,91.50
2022-11-05T03:35:20.634Z,91.42
2022-11-05T03:37:50.066Z,91.51
2022-11-05T03:40:19.721Z,91.34
2022-11-05T03:42:49.879Z,91.59
2022-11-05T03:45:27.894Z,91.68
2022-11-05T03:48:00.047Z,91.23
2022-11-05T03:50:49.242Z,91.79
2022-11-05T03:53:20.868Z,91.39
2022-11-05T03:55:55.527Z,91.41
2022-11-05T03:58:23.538Z,91.59
2022-11-05T04:00:51.049Z,91.84
2022-11-05T04:03:17.610Z,92.16
2022-11-05T04:05:44.539Z,92.20
2022-11-05T04:08:29.510Z,91.42
2022-11-05T04:11:14.442Z,92.26
2022-11-05T04:13:40.853Z,92.23
2022-11-05T04:16:26.070Z,91.97
2022-11-05T04:18:52.494Z,92.47
2022-11-05T04:21:37.842Z,92.08
2022-11-05T04:24:10.343Z,92.54
2022-11-05T04:26:45.962Z,92.27
2022-11-05T04:29:30.773Z,92.66
2022-11-05T04:31:57.466Z,92.38
2022-11-05T04:34:23.985Z,92.16
2022-11-05T04:36:51.877Z,92.40
2022-11-05T04:39:19.280Z,92.45
2022-11-05T04:41:48.146Z,92.47
2022-11-05T04:44:15.806Z,92.55
2022-11-05T04:46:42.519Z,92.29
2022-11-05T04:49:08.974Z,92.68
2022-11-05T04:51:35.462Z,92.70
2022-11-05T04:54:02.104Z,92.47
2022-11-05T04:56:28.557Z,92.85
2022-11-05T04:58:54.984Z,93.09
2022-11-05T05:01:23.659Z,92.41
2022-11-05T05:03:51.900Z,92.92
2022-11-05T05:06:19.120Z,93.12
2022-11-05T05:08:49.555Z,92.59
2022-11-05T05:11:18.191Z,92.75
2022-11-05T05:13:44.667Z,93.50
2022-11-05T05:16:16.905Z,93.37
2022-11-05T05:18:46.185Z,93.25
2022-11-05T05:21:32.188Z,93.27
2022-11-05T05:23:58.829Z,93.03
2022-11-05T05:26:25.317Z,93.11
2022-11-05T05:28:55.337Z,93.18
2022-11-05T05:31:22.617Z,92.87
2022-11-05T05:33:49.222Z,93.18
2022-11-05T05:36:15.687Z,92.92
2022-11-05T05:38:42.229Z,93.00
2022-11-05T05:41:08.735Z,92.87
2022-11-05T05:43:35.159Z,92.72
2022-11-05T05:46:06.729Z,93.15
2022-11-05T05:48:33.853Z,92.86
2022-11-05T05:51:02.162Z,92.81
2022-11-05T05:53:29.439Z,92.29
2022-11-05T05:55:56.957Z,92.74
2022-11-05T05:58:26.777Z,92.37
2022-11-05T06:00:54.272Z,92.48
2022-11-05T06:03:21.079Z,92.43
2022-11-05T06:05:47.555Z,92.60
2022-11-05T06:08:13.983Z,92.14
2022-11-05T06:10:40.511Z,92.03
2022-11-05T06:13:07.098Z,92.09
2022-11-05T06:15:36.092Z,92.67
2022-11-05T06:18:02.735Z,92.47
2022-11-05T06:20:29.229Z,92.42
2022-11-05T06:22:58.774Z,92.54
2022-11-05T06:25:26.133Z,92.62
2022-11-05T06:27:53.567Z,92.63
2022-11-05T06:30:21.677Z,92.60
2022-11-05T06:32:48.180Z,92.67
2022-11-05T06:35:14.748Z,92.57
2022-11-05T06:37:41.147Z,92.91
2022-11-05T06:40:08.797Z,92.46
2022-11-05T06:42:35.298Z,92.39
2022-11-05T06:45:01.772Z,92.55
2022-11-05T06:47:28.171Z,92.50
2022-11-05T06:49:54.850Z,92.71
2022-11-05T06:52:21.353Z,92.95
2022-11-05T06:54:48.176Z,92.18
2022-11-05T06:57:15.140Z,92.97
2022-11-05T06:59:42.017Z,93.50
2022-11-05T07:02:11.674Z,93.63
2022-11-05T07:04:38.195Z,93.19
2022-11-05T07:07:04.921Z,93.31
2022-11-05T07:09:31.335Z,93.38
2022-11-05T07:11:57.748Z,93.15
2022-11-05T07:14:24.182Z,93.77
2022-11-05T07:16:50.799Z,93.59
2022-11-05T07:19:17.194Z,93.32
2022-11-05T07:21:43.646Z,92.97
2022-11-05T07:24:10.071Z,93.13
2022-11-05T07:26:36.477Z,93.46
2022-11-05T07:29:02.877Z,93.25
2022-11-05T07:31:29.299Z,93.02
2022-11-05T07:33:55.702Z,93.07
2022-11-05T07:36:22.194Z,93.76
2022-11-05T07:38:48.679Z,93.71
2022-11-05T07:41:15.080Z,93.48
2022-11-05T07:43:41.708Z,93.66
2022-11-05T07:46:13.556Z,93.37
2022-11-05T07:48:40.610Z,94.20
2022-11-05T07:51:07.033Z,93.85
2022-11-05T07:53:33.595Z,93.40
2022-11-05T07:56:00.075Z,93.33
2022-11-05T07:58:26.743Z,93.30
2022-11-05T08:00:53.404Z,93.01
2022-11-05T08:03:20.709Z,93.41
2022-11-05T08:05:48.247Z,93.01
2022-11-05T08:08:18.532Z,92.45
2022-11-05T08:10:45.546Z,93.89
2022-11-05T08:13:13.557Z,93.35
2022-11-05T08:15:40.770Z,92.54
2022-11-05T08:18:10.533Z,92.49
2022-11-05T08:20:39.046Z,92.39
2022-11-05T08:23:05.800Z,91.80
2022-11-05T08:25:32.370Z,92.08
2022-11-05T08:28:02.818Z,92.03
2022-11-05T08:30:30.276Z,91.20
2022-11-05T08:33:02.465Z,91.13
2022-11-05T08:35:29.470Z,90.31
2022-11-05T08:38:02.586Z,89.75
2022-11-05T08:40:31.330Z,90.26
2022-11-05T08:43:04.813Z,90.78
2022-11-05T08:45:31.808Z,89.41
2022-11-05T08:48:02.826Z,89.75
2022-11-05T08:50:30.908Z,89.97
2022-11-05T08:52:57.591Z,89.01
2022-11-05T08:55:24.707Z,89.00
2022-11-05T08:58:10.802Z,89.02
2022-11-05T09:00:37.986Z,89.36
2022-11-05T09:03:07.142Z,89.06
2022-11-05T09:05:37.818Z,88.89
2022-11-05T09:08:05.634Z,87.06
2022-11-05T09:10:32.844Z,86.99
2022-11-05T09:12:59.326Z,87.26
2022-11-05T09:15:25.715Z,87.11
2022-11-05T09:17:52.206Z,86.57
2022-11-05T09:20:18.867Z,86.50
2022-11-05T09:22:46.684Z,85.09
2022-11-05T09:25:13.750Z,85.97
2022-11-05T09:27:40.335Z,84.88
2022-11-05T09:30:07.393Z,85.78
2022-11-05T09:32:34.117Z,85.86
2022-11-05T09:35:01.182Z,85.67
2022-11-05T09:37:28.319Z,86.56
2022-11-05T09:39:55.769Z,85.77
2022-11-05T09:42:29.149Z,85.96
2022-11-05T09:45:01.517Z,84.80
2022-11-05T09:47:33.177Z,85.40
2022-11-05T09:50:02.592Z,84.63
2022-11-05T09:52:31.717Z,85.09
2022-11-05T09:54:58.529Z,84.45
2022-11-05T09:57:36.344Z,84.73
2022-11-05T10:00:07.259Z,85.47
2022-11-05T10:02:39.911Z,84.66
2022-11-05T10:05:11.311Z,86.24
2022-11-05T10:07:46.670Z,86.22
2022-11-05T10:10:40.371Z,86.28
2022-11-05T10:13:29.731Z,86.37
2022-11-05T10:16:14.572Z,86.12
2022-11-05T10:18:44.364Z,85.86
2022-11-05T10:21:37.715Z,85.53
2022-11-05T10:24:17.634Z,85.42
2022-11-05T10:26:50.506Z,83.98
2022-11-05T10:29:27.310Z,84.16
2022-11-05T10:31:56.450Z,83.65
2022-11-05T10:34:27.910Z,84.59
2022-11-05T10:36:54.507Z,84.55
2022-11-05T10:39:21.593Z,83.95
2022-11-05T10:42:09.822Z,84.08
2022-11-05T10:44:42.526Z,83.57
2022-11-05T10:47:17.011Z,83.78
2022-11-05T10:50:10.208Z,84.25
2022-11-05T10:52:40.245Z,83.65
2022-11-05T10:55:17.111Z,84.17
2022-11-05T10:57:43.676Z,83.79
2022-11-05T11:00:19.413Z,83.39
2022-11-05T11:02:57.794Z,84.11
2022-11-05T11:05:30.912Z,84.63
2022-11-05T11:08:24.985Z,83.06
2022-11-05T11:10:54.682Z,83.76
2022-11-05T11:13:25.262Z,82.89
2022-11-05T11:15:52.534Z,83.51
2022-11-05T11:18:40.470Z,82.11
2022-11-05T11:21:14.800Z,82.94
2022-11-05T11:23:43.007Z,82.16
2022-11-05T11:26:12.477Z,81.19
2022-11-05T11:28:53.579Z,82.28
2022-11-05T11:31:26.604Z,82.80
2022-11-05T11:34:33.772Z,82.54
2022-11-05T11:37:08.294Z,81.31
2022-11-05T11:39:35.798Z,81.57
2022-11-05T11:42:11.287Z,82.31
2022-11-05T11:44:43.693Z,81.31
2022-11-05T11:47:15.557Z,80.91
2022-11-05T11:49:42.040Z,82.30
2022-11-05T11:52:16.280Z,82.04
2022-11-05T11:54:42.994Z,81.70
2022-11-05T11:57:29.300Z,81.66
2022-11-05T12:00:14.631Z,81.88
2022-11-05T12:03:16.965Z,80.76
2022-11-05T12:06:15.560Z,82.09
2022-11-05T12:09:08.205Z,81.94
2022-11-05T12:11:50.481Z,81.78
2022-11-05T12:14:23.638Z,81.40
2022-11-05T12:17:21.879Z,81.84
2022-11-05T12:20:09.805Z,80.55
2022-11-05T12:22:45.224Z,80.44
2022-11-05T12:25:35.298Z,80.88
2022-11-05T12:28:24.204Z,80.77
2022-11-05T12:31:06.513Z,81.14
2022-11-05T12:33:56.152Z,80.25
2022-11-05T12:36:47.093Z,80.99
2022-11-05T12:39:13.634Z,80.24
2022-11-05T12:41:53.910Z,80.48
2022-11-05T12:44:34.543Z,79.77
2022-11-05T12:47:39.144Z,79.11
2022-11-05T12:50:33.743Z,78.88
2022-11-05T12:53:21.760Z,77.67
2022-11-05T12:55:49.727Z,77.44
2022-11-05T12:58:31.405Z,78.07
2022-11-05T13:01:15.017Z,77.75
2022-11-05T13:03:52.238Z,78.65
2022-11-05T13:06:30.938Z,77.63
2022-11-05T13:09:15.309Z,77.14
2022-11-05T13:11:53.775Z,77.81
2022-11-05T13:14:30.139Z,77.68
2022-11-05T13:17:01.394Z,77.62
2022-11-05T13:20:02.207Z,77.25
2022-11-05T13:22:44.415Z,76.94
2022-11-05T13:25:24.262Z,76.51
2022-11-05T13:27:59.632Z,76.41
2022-11-05T13:30:30.601Z,77.58
2022-11-05T13:33:04.317Z,76.53
2022-11-05T13:35:40.767Z,76.47
2022-11-05T13:38:33.593Z,76.97
2022-11-05T13:41:18.407Z,76.15
2022-11-05T13:44:14.279Z,76.12
2022-11-05T13:46:59.602Z,75.88
2022-11-05T13:49:55.392Z,75.74
2022-11-05T13:52:59.355Z,76.65
2022-11-05T13:55:37.982Z,75.78
2022-11-05T13:58:34.867Z,76.75
2022-11-05T14:01:45.468Z,76.01
2022-11-05T14:04:24.327Z,77.17
2022-11-05T14:06:51.105Z,76.44
2022-11-05T14:09:24.802Z,76.81
2022-11-05T14:11:55.552Z,77.19
2022-11-05T14:14:26.768Z,77.70
2022-11-05T14:17:09.346Z,77.26
2022-11-05T14:19:50.668Z,77.64
2022-11-05T14:22:38.502Z,77.33
2022-11-05T14:25:20.208Z,77.45
2022-11-05T14:27:51.804Z,78.34
2022-11-05T14:30:56.841Z,78.76
2022-11-05T14:33:25.856Z,78.11
2022-11-05T14:36:20.301Z,77.69
2022-11-05T14:38:49.775Z,77.29
2022-11-05T14:41:17.376Z,77.23
2022-11-05T14:43:57.613Z,78.26
2022-11-05T14:46:24.607Z,78.52
2022-11-05T14:48:58.323Z,78.72
2022-11-05T14:51:45.910Z,78.82
2022-11-05T14:54:24.080Z,78.55
2022-11-05T14:56:59.846Z,78.69
2022-11-05T14:59:31.440Z,78.36
2022-11-05T15:02:03.606Z,77.59
2022-11-05T15:04:31.680Z,78.08
2022-11-05T15:07:24.206Z,78.93
2022-11-05T15:10:03.206Z,78.32
2022-11-05T15:12:56.637Z,77.81
2022-11-05T15:15:27.863Z,78.03
2022-11-05T15:18:19.047Z,78.17
2022-11-05T15:20:48.617Z,77.73
2022-11-05T15:23:19.388Z,78.42
2022-11-05T15:26:09.197Z,77.77
2022-11-05T15:28:39.825Z,78.36
2022-11-05T15:31:31.674Z,77.44
2022-11-05T15:34:16.555Z,77.56
2022-11-05T15:36:57.917Z,77.73
2022-11-05T15:39:32.014Z,77.77
2022-11-05T15:42:04.778Z,78.36
2022-11-05T15:44:43.510Z,77.93
2022-11-05T15:47:25.073Z,77.95
2022-11-05T15:49:57.756Z,78.31
2022-11-05T15:52:31.435Z,78.42
2022-11-05T15:55:08.114Z,79.37
2022-11-05T15:57:39.898Z,78.66
2022-11-05T16:00:15.666Z,78.79
2022-11-05T16:02:42.949Z,78.71
2022-11-05T16:05:13.681Z,79.43
2022-11-05T16:07:47.738Z,78.86
2022-11-05T16:10:21.560Z,79.33
2022-11-05T16:12:48.562Z,79.41
2022-11-05T16:15:14.958Z,79.24
2022-11-05T16:17:50.613Z,79.04
2022-11-05T16:20:33.557Z,78.57
2022-11-05T16:23:06.990Z,78.65
2022-11-05T16:25:40.487Z,79.76
2022-11-05T16:28:19.569Z,78.82
2022-11-05T16:30:57.651Z,79.05
2022-11-05T16:33:27.251Z,79.39
2022-11-05T16:35:53.731Z,79.79
2022-11-05T16:38:20.964Z,80.47
2022-11-05T16:40:47.566Z,81.17
2022-11-05T16:43:21.186Z,81.02
2022-11-05T16:45:47.878Z,81.48
2022-11-05T16:48:15.530Z,81.05
2022-11-05T16:50:42.823Z,80.82
2022-11-05T16:53:09.524Z,81.37
2022-11-05T16:55:38.816Z,81.41
2022-11-05T16:58:07.401Z,81.38
2022-11-05T17:00:33.995Z,81.47
2022-11-05T17:03:00.543Z,81.87
2022-11-05T17:05:31.169Z,81.41
2022-11-05T17:07:58.428Z,82.36
2022-11-05T17:10:25.854Z,82.22
2022-11-05T17:12:52.957Z,82.50
2022-11-05T17:15:35.545Z,82.47
2022-11-05T17:18:03.712Z,82.47
2022-11-05T17:20:41.607Z,81.89
2022-11-05T17:23:11.019Z,81.53
2022-11-05T17:25:38.804Z,82.34
2022-11-05T17:28:05.680Z,82.30
2022-11-05T17:30:32.715Z,82.64
2022-11-05T17:32:59.301Z,82.85
2022-11-05T17:35:26.777Z,82.41
2022-11-05T17:37:53.409Z,82.19
2022-11-05T17:40:22.635Z,82.59
2022-11-05T17:42:50.584Z,82.54
2022-11-05T17:45:18.010Z,82.46
2022-11-05T17:47:44.770Z,82.63
2022-11-05T17:50:14.222Z,82.48
2022-11-05T17:52:41.012Z,82.75
2022-11-05T17:55:16.519Z,83.37
2022-11-05T17:57:47.763Z,83.19
2022-11-05T18:00:16.673Z,83.16
2022-11-05T18:02:43.399Z,83.13
2022-11-05T18:05:10.835Z,83.04
2022-11-05T18:07:37.317Z,83.09
2022-11-05T18:10:04.956Z,83.76
2022-11-05T18:12:31.560Z,83.50
2022-11-05T18:14:58.073Z,84.46
2022-11-05T18:17:24.639Z,84.08
2022-11-05T18:19:51.138Z,83.75
2022-11-05T18:22:19.448Z,85.25
2022-11-05T18:24:46.745Z,85.18
2022-11-05T18:27:13.394Z,85.18
2022-11-05T18:29:39.871Z,85.45
2022-11-05T18:32:06.755Z,85.67
2022-11-05T18:34:33.260Z,85.15
2022-11-05T18:36:59.741Z,85.31
2022-11-05T18:39:26.146Z,85.03
2022-11-05T18:41:52.668Z,85.29
2022-11-05T18:44:22.741Z,86.04
2022-11-05T18:46:58.229Z,85.57
2022-11-05T18:49:25.524Z,85.73
2022-11-05T18:51:51.993Z,85.37
2022-11-05T18:54:18.420Z,85.30
2022-11-05T18:56:45.608Z,85.19
2022-11-05T19:02:00.651Z,85.66
2022-11-05T19:04:27.431Z,85.44
2022-11-05T19:06:54.350Z,85.10
2022-11-05T19:09:20.911Z,85.34
2022-11-05T19:11:47.785Z,84.66
2022-11-05T19:14:14.286Z,84.77
2022-11-05T19:16:40.769Z,84.50
2022-11-05T19:19:07.513Z,84.58
2022-11-05T19:21:34.105Z,84.46
2022-11-05T19:24:02.443Z,84.48
2022-11-05T19:26:29.393Z,84.64
2022-11-05T19:28:58.996Z,83.86
2022-11-05T19:31:26.598Z,83.51
2022-11-05T19:33:53.786Z,84.09
2022-11-05T19:36:22.291Z,83.81
2022-11-05T19:39:00.794Z,83.99
2022-11-05T19:41:28.304Z,83.86
2022-11-05T19:43:58.164Z,84.31
2022-11-05T19:46:25.575Z,83.99
2022-11-05T19:48:52.288Z,83.54
2022-11-05T19:51:22.392Z,84.02
2022-11-05T19:53:51.471Z,83.43
2022-11-05T19:56:20.544Z,84.43
2022-11-05T19:58:47.060Z,84.40
2022-11-05T20:01:15.283Z,83.34
2022-11-05T20:03:42.404Z,83.16
2022-11-05T20:06:14.928Z,83.69
2022-11-05T20:08:59.746Z,83.09
2022-11-05T20:11:29.328Z,83.81
2022-11-05T20:13:56.927Z,82.82
2022-11-05T20:16:29.249Z,83.42
2022-11-05T20:18:57.145Z,83.43
2022-11-05T20:21:23.853Z,83.18
2022-11-05T20:23:50.663Z,82.85
2022-11-05T20:26:17.365Z,83.51
2022-11-05T20:28:44.282Z,83.36
2022-11-05T20:31:13.469Z,83.77
2022-11-05T20:33:40.845Z,83.06
2022-11-05T20:36:10.918Z,82.94
2022-11-05T20:38:37.714Z,82.87
2022-11-05T20:41:09.268Z,83.64
2022-11-05T20:43:36.906Z,83.06
2022-11-05T20:46:03.972Z,83.31
2022-11-05T20:48:32.510Z,83.63
2022-11-05T20:50:59.970Z,83.47
2022-11-05T20:53:26.549Z,83.18
2022-11-05T20:55:53.189Z,83.22
2022-11-05T20:58:19.678Z,83.10
2022-11-05T21:01:05.506Z,83.51
2022-11-05T21:03:32.735Z,83.02
2022-11-05T21:06:04.121Z,83.54
2022-11-05T21:08:30.690Z,83.46
2022-11-05T21:10:57.391Z,83.20
2022-11-05T21:13:25.068Z,83.23
2022-11-05T21:15:54.671Z,84.07
2022-11-05T21:18:23.619Z,83.53
2022-11-05T21:20:50.529Z,83.19
2022-11-05T21:23:17.281Z,83.63
2022-11-05T21:25:44.466Z,83.38
2022-11-05T21:28:13.065Z,84.01
2022-11-05T21:30:45.435Z,84.06
2022-11-05T21:33:16.028Z,83.73
2022-11-05T21:35:48.990Z,84.33
2022-11-05T21:38:17.450Z,83.79
2022-11-05T21:40:45.402Z,84.11
2022-11-05T21:43:12.503Z,83.99
2022-11-05T21:45:40.187Z,83.92
2022-11-05T21:48:07.779Z,84.71
2022-11-05T21:50:53.208Z,84.45
2022-11-05T21:53:38.735Z,84.01
2022-11-05T21:56:51.434Z,83.82
2022-11-05T21:59:40.000Z,84.43
2022-11-05T22:02:07.915Z,84.15
2022-11-05T22:04:37.174Z,84.62
2022-11-05T22:07:04.659Z,83.93
2022-11-05T22:09:31.266Z,84.28
2022-11-05T22:11:58.197Z,84.51
2022-11-05T22:14:25.184Z,84.06
2022-11-05T22:16:51.718Z,84.37
2022-11-05T22:19:18.698Z,84.25
2022-11-05T22:21:45.562Z,83.94
2022-11-05T22:24:12.431Z,84.09
2022-11-05T22:26:41.462Z,84.38
2022-11-05T22:29:08.835Z,84.32
2022-11-05T22:31:36.818Z,84.32
2022-11-05T22:34:04.738Z,84.01
2022-11-05T22:36:32.349Z,84.26
2022-11-05T22:38:59.190Z,84.61
2022-11-05T22:41:26.900Z,84.27
2022-11-05T22:43:53.418Z,84.38
2022-11-05T22:46:22.422Z,84.30
2022-11-05T22:48:49.773Z,84.28
2022-11-05T22:51:19.131Z,84.75
2022-11-05T22:53:46.125Z,84.27
2022-11-05T22:56:19.270Z,84.08
2022-11-05T22:58:46.420Z,84.46
2022-11-05T23:01:13.719Z,84.41
2022-11-05T23:03:42.130Z,84.59
2022-11-05T23:06:31.718Z,84.52
2022-11-05T23:09:17.548Z,84.73
2022-11-05T23:11:47.072Z,84.76
2022-11-05T23:14:14.543Z,84.66
2022-11-05T23:17:00.684Z,85.18
2022-11-05T23:19:46.096Z,84.27
2022-11-05T23:22:33.933Z,84.86
2022-11-05T23:25:00.701Z,84.97
2022-11-05T23:27:32.564Z,84.38
2022-11-05T23:30:00.583Z,84.78
2022-11-05T23:32:29.879Z,84.86
2022-11-05T23:34:58.115Z,84.74
2022-11-05T23:37:45.572Z,85.29
2022-11-05T23:40:15.690Z,85.02
2022-11-05T23:43:02.386Z,84.88
2022-11-05T23:45:47.676Z,85.03
2022-11-05T23:48:21.066Z,85.71
2022-11-05T23:51:08.998Z,85.03
2022-11-05T23:53:37.924Z,85.56
2022-11-05T23:56:08.577Z,85.31
2022-11-05T23:58:36.796Z,85.15
